Herk-de-Stad, Belgium
Current Conditions -  °F | °C
As of 4:33 PM on Wednesday 26 Nov 2014 (Local Time) from EBDT Reporting Station
Light Rain Light Rain  
Wind Chill: 40°   Ceiling: 1500
Heat Index: 43°   Visibility: 1.5mi
Dew Point: 43°   Wind: 5mph
Humidity: 100%   Direction: 90°E
Pressure: 29.88"   Gusts: NA
Location:  50.94°N, 5.17°E
Report Text: EBDT 261533Z 09004KT 2400 -RA BKN015 06/06 Q1012 YLO FCST CANCEL
Loading
Personal Weather Stations






























Interactive Weather Map New forecast layout! Learn more

10-Day Weather Forecast

Advertisements
Track Severe Weather on mobile